首页
METAR-TAF:

METAR-TAF

机场 :

摩爾曼斯克, 俄罗斯

纬度: 68-58N, 经度: 033-03E, 海拔: 51米

当前天气观测

该预报发布于28分钟前的07:00 UTC
风速2节,风向南转南东
温度 -22°C
湿度 76%
气压 1015 hPa
能见度10公里或以上
多云层高于3400英尺, 积雨云.
小阵雪

METAR: ULMM 240700Z 15001MPS 9999 -SHSN BKN034CB M22/M25 Q1015 R31/420334 NOSIG RMK QFE754

时间: 10:28 (07:28 UTC)

预报

该预报发布于2小时和38分钟前的04:50 UTC
预报有效从24日的 06点(UTC)到 25日的 06点(UTC)
风速6节,风向北转西北
能見度: 3100
多云层高于1100英尺, 积雨云.
小阵雪
短暂存在
从 24日的 06点(UTC)到 24日的 18点(UTC)
风速4节,风向西转西北
能見度: 0300
多云层高于300英尺
多云层高于1100英尺, 积雨云.
大阵雪
短暂存在
从 24日的 18点(UTC)到 25日的 06点(UTC)
风速2节,风向多变
能見度: 0300
多云层高于300英尺
多云层高于1100英尺, 积雨云.
小阵雪, 冻雾

TAF: ULMM 240450Z 2406/2506 34003MPS 3100 -SHSN BKN011CB TEMPO 2406/2418 30002MPS 0300 +SHSN BKN003 BKN011CB TEMPO 2418/2506 VRB01MPS 0300 -SHSN FZFG BKN003 BKN011CB

超过4000个机场的气象观测和天气预报(METAR&TAF报告)。

可查询的气象台以黄色和红色小点在地图上表示。

将鼠标移到小点上方,可查看气象台名称。

然后点击查看天气观测和预报。

如需切换地图:点击带黑十字的绿色按钮放大地图;点击带横线的绿色按钮缩小地图;或者点击绿色箭头查看邻近地区的地图。


METAR-TAF: